createdAt,value
2023-10-12T00:03:21.598Z,5.3
2023-10-12T00:09:15.410Z,5.3
2023-10-12T00:15:08.108Z,5.2
2023-10-12T00:21:03.063Z,5.2
2023-10-12T00:26:55.840Z,5.1
2023-10-12T00:32:47.191Z,5.6
2023-10-12T00:38:38.063Z,5.2
2023-10-12T00:44:32.568Z,4.7
2023-10-12T00:50:26.654Z,4.8
2023-10-12T00:56:20.497Z,4.9
2023-10-12T01:02:12.370Z,5.1
2023-10-12T01:08:05.009Z,4.9
2023-10-12T01:13:57.586Z,5.4
2023-10-12T01:19:50.660Z,5
2023-10-12T01:25:42.969Z,5.4
2023-10-12T01:31:36.301Z,5
2023-10-12T01:37:29.081Z,5.3
2023-10-12T01:43:21.977Z,4.8
2023-10-12T01:49:13.644Z,5.2
2023-10-12T01:55:06.810Z,5
2023-10-12T02:01:01.231Z,5.3
2023-10-12T02:06:54.835Z,5.3
2023-10-12T02:12:48.982Z,4.7
2023-10-12T02:18:43.203Z,4.8
2023-10-12T02:24:36.125Z,4.6
2023-10-12T02:30:31.241Z,4.4
2023-10-12T02:36:23.622Z,5.1
2023-10-12T02:42:16.992Z,4.7
2023-10-12T02:48:08.611Z,4.8
2023-10-12T02:53:59.370Z,4.7
2023-10-12T02:59:52.116Z,4.9
2023-10-12T03:05:43.761Z,5.4
2023-10-12T03:11:35.813Z,4.7
2023-10-12T03:17:30.244Z,5
2023-10-12T03:23:23.090Z,5.1
2023-10-12T03:29:16.800Z,5.3
2023-10-12T03:35:08.569Z,5.9
2023-10-12T03:41:03.511Z,5.3
2023-10-12T03:46:57.759Z,5.5
2023-10-12T03:52:50.596Z,6.2
2023-10-12T03:58:44.949Z,6
2023-10-12T04:04:38.295Z,6.3
2023-10-12T04:10:32.555Z,6.1
2023-10-12T04:16:25.595Z,6.2
2023-10-12T04:22:18.311Z,5.9
2023-10-12T04:28:11.088Z,5.8
2023-10-12T04:34:01.921Z,6.6
2023-10-12T04:39:53.486Z,6.7
2023-10-12T04:45:47.223Z,6.7
2023-10-12T04:51:39.425Z,7
2023-10-12T04:57:36.198Z,6.9
2023-10-12T05:03:31.317Z,6.6
2023-10-12T05:09:24.078Z,7
2023-10-12T05:15:19.250Z,6.7
2023-10-12T05:21:15.012Z,7.5
2023-10-12T05:27:09.459Z,7
2023-10-12T05:33:05.929Z,7.7
2023-10-12T05:38:59.438Z,7.7
2023-10-12T05:44:52.000Z,7.6
2023-10-12T05:50:44.757Z,9
2023-10-12T05:56:39.155Z,8.1
2023-10-12T06:02:32.593Z,9.2
2023-10-12T06:08:25.910Z,9.6
2023-10-12T06:14:18.369Z,8.4
2023-10-12T06:20:19.752Z,8.3
2023-10-12T06:26:18.575Z,8.2
2023-10-12T06:32:13.517Z,8.5
2023-10-12T06:38:06.256Z,8.7
2023-10-12T06:43:59.984Z,9.2
2023-10-12T06:49:52.482Z,8.8
2023-10-12T06:55:46.006Z,9.1
2023-10-12T07:01:40.480Z,9.1
2023-10-12T07:07:34.283Z,8.5
2023-10-12T07:13:27.866Z,9
2023-10-12T07:19:24.607Z,9.1
2023-10-12T07:25:16.958Z,9.8
2023-10-12T07:31:12.479Z,9
2023-10-12T07:37:06.988Z,8.9
2023-10-12T07:42:59.819Z,8.9
2023-10-12T07:48:52.062Z,8.5
2023-10-12T07:54:45.120Z,9.7
2023-10-12T08:00:41.563Z,9.1
2023-10-12T08:06:34.995Z,8.9
2023-10-12T08:12:27.631Z,9.2
2023-10-12T08:18:24.662Z,9.3
2023-10-12T08:24:17.194Z,9.1
2023-10-12T08:30:09.956Z,9.2
2023-10-12T08:35:59.933Z,9.8
2023-10-12T08:41:52.862Z,10.6
2023-10-12T08:47:44.159Z,10.8
2023-10-12T08:53:38.236Z,10.5
2023-10-12T08:59:33.198Z,10.8
2023-10-12T09:05:27.539Z,10.7
2023-10-12T09:11:25.230Z,11
2023-10-12T09:17:25.515Z,12
2023-10-12T09:23:23.273Z,10.4
2023-10-12T09:29:15.279Z,10.4
2023-10-12T09:35:07.988Z,10.7
2023-10-12T09:41:10.683Z,11.3
2023-10-12T09:47:05.924Z,11.5
2023-10-12T09:52:58.423Z,11.3
2023-10-12T09:58:52.995Z,11.4
2023-10-12T10:04:45.848Z,11.2
2023-10-12T10:10:38.607Z,11.6
2023-10-12T10:16:31.858Z,10.7
2023-10-12T10:22:26.838Z,10.6
2023-10-12T10:28:21.914Z,10.7
2023-10-12T10:34:16.553Z,10.3
2023-10-12T10:40:09.386Z,11.1
2023-10-12T10:46:02.192Z,11.4
2023-10-12T10:51:54.984Z,10.7
2023-10-12T10:57:49.407Z,11.8
2023-10-12T11:03:43.735Z,11.3
2023-10-12T11:09:37.780Z,11.4
2023-10-12T11:15:30.651Z,10.8
2023-10-12T11:21:25.044Z,11.2
2023-10-12T11:27:18.223Z,10.5
2023-10-12T11:33:13.600Z,10
2023-10-12T11:39:06.863Z,9.5
2023-10-12T11:45:00.290Z,9.5
2023-10-12T11:50:51.994Z,8.3
2023-10-12T11:56:44.977Z,8.1
2023-10-12T12:02:40.397Z,8.1
2023-10-12T12:08:35.024Z,8.6
2023-10-12T12:14:27.988Z,7.9
2023-10-12T12:20:21.673Z,7.8
2023-10-12T12:26:13.667Z,7.5
2023-10-12T12:32:06.213Z,7.3
2023-10-12T12:37:59.437Z,6.5
2023-10-12T12:43:50.034Z,6.9
2023-10-12T12:49:49.835Z,6.3
2023-10-12T12:55:43.476Z,7.1
2023-10-12T13:01:36.173Z,7.6
2023-10-12T13:07:30.606Z,7.6
2023-10-12T13:13:25.440Z,8.3
2023-10-12T13:19:17.890Z,8.3
2023-10-12T13:25:10.456Z,8.3
2023-10-12T13:31:03.418Z,9.4
2023-10-12T13:36:57.429Z,9.7
2023-10-12T13:42:51.482Z,8.9
2023-10-12T13:48:46.532Z,8.6
2023-10-12T13:54:43.021Z,8.9
2023-10-12T14:00:37.533Z,8.5
2023-10-12T14:06:34.569Z,9.4
2023-10-12T14:12:29.703Z,8.6
2023-10-12T14:18:21.058Z,9
2023-10-12T14:24:15.763Z,8.9
2023-10-12T14:30:09.734Z,8.1
2023-10-12T14:36:01.749Z,7.9
2023-10-12T14:41:56.307Z,8
2023-10-12T14:47:49.889Z,7.6
2023-10-12T14:53:41.952Z,7.9
2023-10-12T14:59:33.902Z,8.2
2023-10-12T15:05:26.448Z,9
2023-10-12T15:11:21.055Z,8.5
2023-10-12T15:17:13.890Z,8.9
2023-10-12T15:23:05.523Z,8.4
2023-10-12T15:29:00.433Z,8.9
2023-10-12T15:34:52.117Z,8.5
2023-10-12T15:40:46.445Z,7.6
2023-10-12T15:46:41.719Z,7.3
2023-10-12T15:52:33.539Z,7.6
2023-10-12T15:58:27.863Z,7.3
2023-10-12T16:04:20.400Z,7.6
2023-10-12T16:10:11.262Z,7.8
2023-10-12T16:16:02.866Z,8.7
2023-10-12T16:21:55.436Z,8.8
2023-10-12T16:27:45.681Z,8.2
2023-10-12T16:33:40.999Z,8.2
2023-10-12T16:39:32.290Z,8.8
2023-10-12T16:45:24.511Z,9
2023-10-12T16:51:18.875Z,9.5
2023-10-12T16:57:13.029Z,8.4
2023-10-12T17:03:05.342Z,8.9
2023-10-12T17:08:59.846Z,9.7
2023-10-12T17:14:52.397Z,10.2
2023-10-12T17:20:45.241Z,9.3
2023-10-12T17:26:37.939Z,10.1
2023-10-12T17:32:30.408Z,9.4
2023-10-12T17:38:24.853Z,8.4
2023-10-12T17:44:19.056Z,8.4
2023-10-12T17:50:12.909Z,8.1
2023-10-12T17:56:07.508Z,8.6
2023-10-12T18:02:00.196Z,8.6
2023-10-12T18:07:52.061Z,9.1
2023-10-12T18:13:46.511Z,10
2023-10-12T18:19:38.630Z,10.3
2023-10-12T18:25:33.698Z,10.7
2023-10-12T18:31:26.421Z,10.2
2023-10-12T18:37:22.224Z,10.8
2023-10-12T18:43:15.169Z,10.6
2023-10-12T18:49:09.378Z,10.9
2023-10-12T18:55:04.152Z,10.5
2023-10-12T19:00:55.848Z,10.2
2023-10-12T19:06:48.221Z,9.4
2023-10-12T19:12:40.457Z,9.1
2023-10-12T19:18:31.953Z,8.8
2023-10-12T19:24:24.221Z,9.5
2023-10-12T19:30:16.614Z,10.4
2023-10-12T19:36:11.523Z,10.6
2023-10-12T19:42:03.334Z,9.6
2023-10-12T19:47:55.581Z,9.3
2023-10-12T19:53:47.307Z,9.8
2023-10-12T19:59:40.233Z,10.9
2023-10-12T20:05:33.473Z,11.3
2023-10-12T20:11:26.080Z,10.9
2023-10-12T20:17:17.906Z,10.9
2023-10-12T20:23:08.434Z,11.1
2023-10-12T20:28:59.546Z,10
2023-10-12T20:34:51.140Z,9.4
2023-10-12T20:40:45.755Z,10.6
2023-10-12T20:46:43.821Z,11.1
2023-10-12T20:52:36.520Z,11
2023-10-12T20:58:30.328Z,11.3
2023-10-12T21:04:23.728Z,10.5
2023-10-12T21:10:18.065Z,12
2023-10-12T21:16:12.694Z,10.1
2023-10-12T21:22:05.442Z,11.8
2023-10-12T21:28:00.383Z,11.5
2023-10-12T21:33:54.302Z,11.1
2023-10-12T21:39:46.627Z,10.4
2023-10-12T21:45:38.776Z,10.8
2023-10-12T21:51:33.270Z,10.4
2023-10-12T21:57:27.296Z,10.9
2023-10-12T22:03:20.436Z,11.3
2023-10-12T22:09:11.767Z,11.1
2023-10-12T22:15:05.214Z,11.7
2023-10-12T22:20:58.186Z,12.4
2023-10-12T22:26:50.016Z,12.9
2023-10-12T22:32:40.866Z,12.5
2023-10-12T22:38:33.930Z,11.6
2023-10-12T22:44:24.511Z,11.5
2023-10-12T22:50:16.214Z,12.3
2023-10-12T22:56:11.505Z,12.9
2023-10-12T23:02:02.976Z,12.9
2023-10-12T23:07:56.428Z,13.4
2023-10-12T23:13:47.769Z,13.2
2023-10-12T23:19:42.038Z,12.9
2023-10-12T23:25:34.615Z,12.6
2023-10-12T23:31:27.523Z,12.3
2023-10-12T23:37:21.406Z,12.8
2023-10-12T23:43:12.909Z,13.3
2023-10-12T23:49:04.849Z,13.6
2023-10-12T23:54:58.672Z,12.6
